createdAt,value
2017-07-27T00:00:27.954Z,15.70
2017-07-27T00:02:54.472Z,15.70
2017-07-27T00:05:21.052Z,15.70
2017-07-27T00:07:48.343Z,15.80
2017-07-27T00:10:14.858Z,15.80
2017-07-27T00:12:41.382Z,15.80
2017-07-27T00:15:07.973Z,15.80
2017-07-27T00:17:35.249Z,15.90
2017-07-27T00:20:01.787Z,15.90
2017-07-27T00:22:28.325Z,15.90
2017-07-27T00:24:54.911Z,15.90
2017-07-27T00:27:21.477Z,16.00
2017-07-27T00:29:48.734Z,16.00
2017-07-27T00:32:15.309Z,16.00
2017-07-27T00:34:41.845Z,16.10
2017-07-27T00:37:08.391Z,16.10
2017-07-27T00:39:34.968Z,16.20
2017-07-27T00:42:01.513Z,16.20
2017-07-27T00:44:28.129Z,16.20
2017-07-27T00:46:54.634Z,16.20
2017-07-27T00:49:21.158Z,16.20
2017-07-27T00:51:48.474Z,16.30
2017-07-27T00:54:14.970Z,16.30
2017-07-27T00:56:41.460Z,16.30
2017-07-27T00:59:08.033Z,16.30
2017-07-27T01:01:34.570Z,16.30
2017-07-27T01:04:01.094Z,16.30
2017-07-27T01:06:27.670Z,16.30
2017-07-27T01:08:54.165Z,16.30
2017-07-27T01:11:20.685Z,16.30
2017-07-27T01:13:47.270Z,16.40
2017-07-27T01:16:13.804Z,16.40
2017-07-27T01:18:41.078Z,16.40
2017-07-27T01:21:07.633Z,16.40
2017-07-27T01:23:35.204Z,16.50
2017-07-27T01:26:01.739Z,16.50
2017-07-27T01:28:28.315Z,16.50
2017-07-27T01:30:54.865Z,16.50
2017-07-27T01:33:21.414Z,16.50
2017-07-27T01:35:47.974Z,16.60
2017-07-27T01:38:14.516Z,16.50
2017-07-27T01:40:41.062Z,16.60
2017-07-27T01:43:07.652Z,16.60
2017-07-27T01:45:34.119Z,16.60
2017-07-27T01:48:00.555Z,16.60
2017-07-27T01:50:27.000Z,16.60
2017-07-27T01:52:53.374Z,16.60
2017-07-27T01:55:19.803Z,16.60
2017-07-27T01:57:46.219Z,16.60
2017-07-27T02:00:12.649Z,16.60
2017-07-27T02:02:39.012Z,16.70
2017-07-27T02:05:05.416Z,16.70
2017-07-27T02:07:31.864Z,16.70
2017-07-27T02:09:58.259Z,16.80
2017-07-27T02:12:24.728Z,16.80
2017-07-27T02:14:51.099Z,16.90
2017-07-27T02:17:17.480Z,16.90
2017-07-27T02:19:43.936Z,16.90
2017-07-27T02:22:10.335Z,17.00
2017-07-27T02:24:36.739Z,17.00
2017-07-27T02:27:03.168Z,17.00
2017-07-27T02:29:29.575Z,17.00
2017-07-27T02:31:55.988Z,17.00
2017-07-27T02:34:22.368Z,17.00
2017-07-27T02:36:48.728Z,17.00
2017-07-27T02:39:15.139Z,17.10
2017-07-27T02:41:41.552Z,17.10
2017-07-27T02:44:07.923Z,17.10
2017-07-27T02:46:34.350Z,17.10
2017-07-27T02:49:00.743Z,17.10
2017-07-27T02:51:27.163Z,17.10
2017-07-27T02:53:53.499Z,17.10
2017-07-27T02:56:19.923Z,17.20
2017-07-27T02:58:47.070Z,17.20
2017-07-27T03:01:13.452Z,17.20
2017-07-27T03:03:39.810Z,17.20
2017-07-27T03:06:06.272Z,17.20
2017-07-27T03:08:32.606Z,17.20
2017-07-27T03:10:59.726Z,17.30
2017-07-27T03:13:27.129Z,17.30
2017-07-27T03:15:53.492Z,17.30
2017-07-27T03:18:19.889Z,17.30
2017-07-27T03:20:46.327Z,17.30
2017-07-27T03:23:12.763Z,17.30
2017-07-27T03:25:39.204Z,17.30
2017-07-27T03:28:05.611Z,17.30
2017-07-27T03:30:32.067Z,17.30
2017-07-27T03:32:58.457Z,17.30
2017-07-27T03:35:24.812Z,17.30
2017-07-27T03:37:51.208Z,17.30
2017-07-27T03:40:17.656Z,17.30
2017-07-27T03:42:44.808Z,17.40
2017-07-27T03:45:11.195Z,17.30
2017-07-27T03:47:37.573Z,17.40
2017-07-27T03:50:03.935Z,17.30
2017-07-27T03:52:30.288Z,17.30
2017-07-27T03:54:57.779Z,17.30
2017-07-27T03:57:24.168Z,17.30
2017-07-27T03:59:50.611Z,17.40
2017-07-27T04:02:17.024Z,17.30
2017-07-27T04:04:43.443Z,17.30
2017-07-27T04:07:09.839Z,17.40
2017-07-27T04:09:36.198Z,17.30
2017-07-27T04:12:02.563Z,17.30
2017-07-27T04:14:28.939Z,17.40
2017-07-27T04:16:55.347Z,17.30
2017-07-27T04:19:22.471Z,17.40
2017-07-27T04:21:48.859Z,17.40
2017-07-27T04:24:15.319Z,17.40
2017-07-27T04:26:41.747Z,17.40
2017-07-27T04:29:08.877Z,17.40
2017-07-27T04:31:36.331Z,17.40
2017-07-27T04:34:02.782Z,17.40
2017-07-27T04:36:29.206Z,17.40
2017-07-27T04:38:55.635Z,17.40
2017-07-27T04:41:22.039Z,17.40
2017-07-27T04:43:48.423Z,17.50
2017-07-27T04:46:14.815Z,17.50
2017-07-27T04:48:41.151Z,17.50
2017-07-27T04:51:07.499Z,17.50
2017-07-27T04:53:34.009Z,17.50
2017-07-27T04:56:00.443Z,17.50
2017-07-27T04:58:26.844Z,17.50
2017-07-27T05:00:53.311Z,17.50
2017-07-27T05:03:19.707Z,17.50
2017-07-27T05:05:46.099Z,17.60
2017-07-27T05:08:12.487Z,17.60
2017-07-27T05:10:38.895Z,17.70
2017-07-27T05:13:05.307Z,17.70
2017-07-27T05:15:31.755Z,17.80
2017-07-27T05:17:58.152Z,17.90
2017-07-27T05:20:24.567Z,17.90
2017-07-27T05:22:50.946Z,17.90
2017-07-27T05:25:17.367Z,17.90
2017-07-27T05:27:43.767Z,18.00
2017-07-27T05:30:10.219Z,17.90
2017-07-27T05:32:37.338Z,17.90
2017-07-27T05:35:03.854Z,17.90
2017-07-27T05:37:30.990Z,18.00
2017-07-27T05:39:57.384Z,17.90
2017-07-27T05:42:24.857Z,18.00
2017-07-27T05:44:51.271Z,18.00
2017-07-27T05:47:17.655Z,18.10
2017-07-27T05:49:44.143Z,18.10
2017-07-27T05:52:10.560Z,18.10
2017-07-27T05:54:36.927Z,18.10
2017-07-27T05:57:04.696Z,18.10
2017-07-27T05:59:31.724Z,18.10
2017-07-27T06:01:58.883Z,18.20
2017-07-27T06:04:25.297Z,18.20
2017-07-27T06:06:51.783Z,18.20
2017-07-27T06:09:18.132Z,18.20
2017-07-27T06:11:44.504Z,18.20
2017-07-27T06:14:10.973Z,18.20
2017-07-27T06:16:37.367Z,18.20
2017-07-27T06:19:04.459Z,18.20
2017-07-27T06:21:30.863Z,18.20
2017-07-27T06:23:57.238Z,18.10
2017-07-27T06:26:23.651Z,18.10
2017-07-27T06:28:50.036Z,18.20
2017-07-27T06:31:16.434Z,18.10
2017-07-27T06:33:42.791Z,18.20
2017-07-27T06:36:09.237Z,18.20
2017-07-27T06:38:35.619Z,18.20
2017-07-27T06:41:02.750Z,18.30
2017-07-27T06:43:29.147Z,18.30
2017-07-27T06:45:55.511Z,18.30
2017-07-27T06:48:21.879Z,18.40
2017-07-27T06:50:49.039Z,18.50
2017-07-27T06:53:16.209Z,18.50
2017-07-27T06:55:42.691Z,18.50
2017-07-27T06:58:09.088Z,18.50
2017-07-27T07:00:35.454Z,18.50
2017-07-27T07:03:01.815Z,18.50
2017-07-27T07:05:28.948Z,18.60
2017-07-27T07:07:55.324Z,18.50
2017-07-27T07:10:22.951Z,18.60
2017-07-27T07:12:49.386Z,18.60
2017-07-27T07:15:15.797Z,18.60
2017-07-27T07:17:42.219Z,18.60
2017-07-27T07:20:08.624Z,18.70
2017-07-27T07:22:34.999Z,18.70
2017-07-27T07:25:01.399Z,18.70
2017-07-27T07:27:27.863Z,18.80
2017-07-27T07:29:54.979Z,18.90
2017-07-27T07:32:22.111Z,19.00
2017-07-27T07:34:48.543Z,18.90
2017-07-27T07:39:53.343Z,19.00
2017-07-27T07:42:19.747Z,19.00
2017-07-27T07:44:46.120Z,19.10
2017-07-27T07:47:12.569Z,19.10
2017-07-27T07:49:38.999Z,19.20
2017-07-27T07:52:06.131Z,19.30
2017-07-27T07:54:33.264Z,19.40
2017-07-27T07:56:59.643Z,19.40
2017-07-27T07:59:26.040Z,19.40
2017-07-27T08:01:52.429Z,19.60
2017-07-27T08:04:19.560Z,19.70
2017-07-27T08:06:46.671Z,19.80
2017-07-27T08:09:25.371Z,19.70
2017-07-27T08:11:51.756Z,19.90
2017-07-27T08:14:18.066Z,20.10
2017-07-27T08:16:45.496Z,20.10
2017-07-27T08:19:11.959Z,20.30
2017-07-27T08:21:38.307Z,20.40
2017-07-27T08:24:04.756Z,20.40
2017-07-27T08:26:31.107Z,20.30
2017-07-27T08:28:57.927Z,20.20
2017-07-27T08:31:24.392Z,20.20
2017-07-27T08:33:51.531Z,20.20
2017-07-27T08:36:17.943Z,20.20
2017-07-27T08:38:45.067Z,20.30
2017-07-27T08:41:11.471Z,20.30
2017-07-27T08:43:37.883Z,20.50
2017-07-27T08:46:04.259Z,20.70
2017-07-27T08:48:30.615Z,20.90
2017-07-27T08:50:58.843Z,21.50
2017-07-27T08:53:25.211Z,21.50
2017-07-27T08:55:52.293Z,22.00
2017-07-27T08:58:18.713Z,22.00
2017-07-27T09:00:45.083Z,22.20
2017-07-27T09:03:12.451Z,22.30
2017-07-27T09:05:38.883Z,22.30
2017-07-27T09:08:05.242Z,22.30
2017-07-27T09:10:32.371Z,22.10
2017-07-27T09:12:58.799Z,22.00
2017-07-27T09:15:25.951Z,21.90
2017-07-27T09:17:53.067Z,21.80
2017-07-27T09:20:19.436Z,21.80
2017-07-27T09:22:45.775Z,21.70
2017-07-27T09:25:12.175Z,21.50
2017-07-27T09:27:38.599Z,21.50
2017-07-27T09:30:04.995Z,21.40
2017-07-27T09:32:31.372Z,21.30
2017-07-27T09:34:57.787Z,21.30
2017-07-27T09:37:24.863Z,21.30
2017-07-27T09:39:51.230Z,21.30
2017-07-27T09:42:18.714Z,21.30
2017-07-27T09:44:45.056Z,21.30
2017-07-27T09:47:11.427Z,21.30
2017-07-27T09:49:37.823Z,21.30
2017-07-27T09:52:04.997Z,21.30
2017-07-27T09:54:31.367Z,21.30
2017-07-27T09:57:03.872Z,21.30
2017-07-27T09:59:30.239Z,21.30
2017-07-27T10:01:57.343Z,21.30
2017-07-27T10:04:23.735Z,21.30
2017-07-27T10:06:50.095Z,21.30
2017-07-27T10:09:17.207Z,21.30
2017-07-27T10:11:44.376Z,21.30
2017-07-27T10:14:11.479Z,21.30
2017-07-27T10:16:37.822Z,21.30
2017-07-27T10:19:04.211Z,21.40
2017-07-27T10:21:30.607Z,21.50
2017-07-27T10:23:56.975Z,21.40
2017-07-27T10:26:23.342Z,21.40
2017-07-27T10:28:49.700Z,21.50
2017-07-27T10:31:16.823Z,21.70
2017-07-27T10:33:43.954Z,21.80
2017-07-27T10:36:10.363Z,21.70
2017-07-27T10:38:36.755Z,21.90
2017-07-27T10:41:03.175Z,22.00
2017-07-27T10:43:29.541Z,22.10
2017-07-27T10:45:56.622Z,22.20
2017-07-27T10:48:23.023Z,22.20
2017-07-27T10:50:49.378Z,22.10
2017-07-27T10:53:15.720Z,22.10
2017-07-27T10:55:42.142Z,22.00
2017-07-27T10:58:09.239Z,21.90
2017-07-27T11:00:35.615Z,21.90
2017-07-27T11:03:01.991Z,21.70
2017-07-27T11:05:28.342Z,21.70
2017-07-27T11:07:54.702Z,21.80
2017-07-27T11:10:21.073Z,21.80
2017-07-27T11:12:47.454Z,21.80
2017-07-27T11:15:14.579Z,22.20
2017-07-27T11:17:41.004Z,22.20
2017-07-27T11:20:07.372Z,22.40
2017-07-27T11:22:33.771Z,22.70
2017-07-27T11:25:00.167Z,23.00
2017-07-27T11:27:26.605Z,23.50
2017-07-27T11:29:53.491Z,23.80
2017-07-27T11:32:20.642Z,24.10
2017-07-27T11:34:47.055Z,24.10
2017-07-27T11:37:14.181Z,24.30
2017-07-27T11:39:40.595Z,24.30
2017-07-27T11:42:06.975Z,24.20
2017-07-27T11:44:33.308Z,24.00
2017-07-27T11:47:01.629Z,24.10
2017-07-27T11:49:27.942Z,24.10
2017-07-27T11:51:54.945Z,24.60
2017-07-27T11:54:21.286Z,24.50
2017-07-27T11:56:48.306Z,24.60
2017-07-27T11:59:15.309Z,24.70
2017-07-27T12:01:41.618Z,24.60
2017-07-27T12:04:07.875Z,24.60
2017-07-27T12:06:35.234Z,24.50
2017-07-27T12:09:01.566Z,24.60
2017-07-27T12:11:27.839Z,24.60
2017-07-27T12:13:55.933Z,24.90
2017-07-27T12:16:22.226Z,24.90
2017-07-27T12:18:48.462Z,25.00
2017-07-27T12:21:14.726Z,24.80
2017-07-27T12:23:41.025Z,24.80
2017-07-27T12:26:07.297Z,24.70
2017-07-27T12:28:33.577Z,24.60
2017-07-27T12:30:59.874Z,24.60
2017-07-27T12:33:26.161Z,24.40
2017-07-27T12:35:52.426Z,24.40
2017-07-27T12:38:18.718Z,24.50
2017-07-27T12:40:45.738Z,24.90
2017-07-27T12:43:11.986Z,24.90
2017-07-27T12:45:38.582Z,25.50
2017-07-27T12:48:05.618Z,27.40
2017-07-27T12:50:32.610Z,28.70
2017-07-27T12:52:58.910Z,28.60
2017-07-27T12:55:25.179Z,29.60
2017-07-27T12:57:52.158Z,30.40
2017-07-27T13:00:18.762Z,30.40
2017-07-27T13:02:45.042Z,30.00
2017-07-27T13:05:12.039Z,29.30
2017-07-27T13:07:39.077Z,28.70
2017-07-27T13:10:05.346Z,28.60
2017-07-27T13:12:31.621Z,28.80
2017-07-27T13:14:57.959Z,28.40
2017-07-27T13:17:24.247Z,28.10
2017-07-27T13:19:50.497Z,27.70
2017-07-27T13:22:16.792Z,27.10
2017-07-27T13:24:43.790Z,26.10
2017-07-27T13:27:10.050Z,26.10
2017-07-27T13:29:36.342Z,25.70
2017-07-27T13:32:02.610Z,25.30
2017-07-27T13:34:28.882Z,24.70
2017-07-27T13:36:55.193Z,24.20
2017-07-27T13:39:21.466Z,23.90
2017-07-27T13:41:47.722Z,23.60
2017-07-27T13:44:14.040Z,23.20
2017-07-27T13:46:40.310Z,23.10
2017-07-27T13:49:06.561Z,23.10
2017-07-27T13:51:32.879Z,23.00
2017-07-27T13:53:59.157Z,23.00
2017-07-27T13:56:25.419Z,23.40
2017-07-27T13:58:51.723Z,24.20
2017-07-27T14:01:18.019Z,25.00
2017-07-27T14:03:44.272Z,26.60
2017-07-27T14:06:10.578Z,28.20
2017-07-27T14:08:36.839Z,29.80
2017-07-27T14:11:03.094Z,31.10
2017-07-27T14:13:29.405Z,31.80
2017-07-27T14:15:56.399Z,32.40
2017-07-27T14:18:22.698Z,32.30
2017-07-27T14:20:49.005Z,32.20
2017-07-27T14:23:15.266Z,32.40
2017-07-27T14:25:41.522Z,32.20
2017-07-27T14:28:07.810Z,32.10
2017-07-27T14:30:34.070Z,32.50
2017-07-27T14:33:00.382Z,33.00
2017-07-27T14:35:26.686Z,33.80
2017-07-27T14:37:52.958Z,34.20
2017-07-27T14:40:19.246Z,33.70
2017-07-27T14:42:45.518Z,32.50
2017-07-27T14:45:11.782Z,31.40
2017-07-27T14:47:38.810Z,29.30
2017-07-27T14:50:05.090Z,29.20
2017-07-27T14:52:31.359Z,28.30
2017-07-27T14:54:57.622Z,27.50
2017-07-27T14:57:23.886Z,26.80
2017-07-27T14:59:50.178Z,26.30
2017-07-27T15:02:16.446Z,25.90
2017-07-27T15:04:42.747Z,25.50
2017-07-27T15:07:09.037Z,25.30
2017-07-27T15:09:36.033Z,24.60
2017-07-27T15:12:02.306Z,24.60
2017-07-27T15:14:28.582Z,24.30
2017-07-27T15:16:54.874Z,24.00
2017-07-27T15:19:21.914Z,23.50
2017-07-27T15:21:48.166Z,23.40
2017-07-27T15:24:14.430Z,23.10
2017-07-27T15:26:40.743Z,23.00
2017-07-27T15:29:07.010Z,23.10
2017-07-27T15:31:33.287Z,23.30
2017-07-27T15:34:00.314Z,23.50
2017-07-27T15:36:26.570Z,23.50
2017-07-27T15:38:52.850Z,23.60
2017-07-27T15:41:20.241Z,23.70
2017-07-27T15:43:46.502Z,23.70
2017-07-27T15:46:13.522Z,23.40
2017-07-27T15:48:39.814Z,23.40
2017-07-27T15:51:06.107Z,23.30
2017-07-27T15:53:32.366Z,23.20
2017-07-27T15:55:59.494Z,22.90
2017-07-27T15:58:25.779Z,22.90
2017-07-27T16:00:52.036Z,22.80
2017-07-27T16:03:18.347Z,22.60
2017-07-27T16:05:44.603Z,22.40
2017-07-27T16:08:10.866Z,22.30
2017-07-27T16:10:37.894Z,21.90
2017-07-27T16:13:04.163Z,21.80
2017-07-27T16:15:30.439Z,21.60
2017-07-27T16:17:56.745Z,21.50
2017-07-27T16:20:22.990Z,21.40
2017-07-27T16:22:49.293Z,21.30
2017-07-27T16:25:15.586Z,21.20
2017-07-27T16:27:41.854Z,21.10
2017-07-27T16:30:08.150Z,21.10
2017-07-27T16:32:34.460Z,21.00
2017-07-27T16:35:00.768Z,21.00
2017-07-27T16:37:27.037Z,20.90
2017-07-27T16:39:53.310Z,20.90
2017-07-27T16:42:19.628Z,20.90
2017-07-27T16:44:45.890Z,20.90
2017-07-27T16:47:12.898Z,20.90
2017-07-27T16:49:39.215Z,20.80
2017-07-27T16:52:06.996Z,20.90
2017-07-27T16:54:33.460Z,21.00
2017-07-27T16:56:59.842Z,20.90
2017-07-27T16:59:26.207Z,21.00
2017-07-27T17:01:52.632Z,21.00
2017-07-27T17:04:18.982Z,21.10
2017-07-27T17:06:45.359Z,21.20
2017-07-27T17:09:12.527Z,21.20
2017-07-27T17:11:38.883Z,21.20
2017-07-27T17:14:05.311Z,21.20
2017-07-27T17:16:31.727Z,21.20
2017-07-27T17:18:58.087Z,21.10
2017-07-27T17:21:24.491Z,21.10
2017-07-27T17:23:50.919Z,21.00
2017-07-27T17:26:17.268Z,21.00
2017-07-27T17:28:43.633Z,21.00
2017-07-27T17:31:10.159Z,20.90
2017-07-27T17:33:36.523Z,20.90
2017-07-27T17:36:02.915Z,20.90
2017-07-27T17:38:29.315Z,20.80
2017-07-27T17:40:55.682Z,20.80
2017-07-27T17:43:22.060Z,20.70
2017-07-27T17:45:48.511Z,20.70
2017-07-27T17:48:15.272Z,20.60
2017-07-27T17:50:42.113Z,20.50
2017-07-27T17:53:09.463Z,20.50
2017-07-27T17:55:36.729Z,20.40
2017-07-27T17:58:04.310Z,20.40
2017-07-27T18:00:31.731Z,20.40
2017-07-27T18:02:58.271Z,20.30
2017-07-27T18:05:24.711Z,20.30
2017-07-27T18:07:51.436Z,20.30
2017-07-27T18:10:17.906Z,20.30
2017-07-27T18:12:45.100Z,20.20
2017-07-27T18:15:12.437Z,20.20
2017-07-27T18:17:39.699Z,20.20
2017-07-27T18:20:08.142Z,20.10
2017-07-27T18:22:36.870Z,20.00
2017-07-27T18:25:04.623Z,20.00
2017-07-27T18:27:32.313Z,20.00
2017-07-27T18:30:00.268Z,20.00
2017-07-27T18:32:28.028Z,19.90
2017-07-27T18:34:56.114Z,20.00
2017-07-27T18:37:25.023Z,20.00
2017-07-27T18:39:52.992Z,20.00
2017-07-27T18:42:20.742Z,19.90
2017-07-27T18:44:48.628Z,19.80
2017-07-27T18:47:16.536Z,19.80
2017-07-27T18:49:44.428Z,19.80
2017-07-27T18:52:13.479Z,19.70
2017-07-27T18:54:41.424Z,19.70
2017-07-27T18:57:09.262Z,19.60
2017-07-27T18:59:37.205Z,19.60
2017-07-27T19:02:05.137Z,19.50
2017-07-27T19:04:33.006Z,19.50
2017-07-27T19:07:01.028Z,19.40
2017-07-27T19:09:28.952Z,19.40
2017-07-27T19:11:56.740Z,19.40
2017-07-27T19:14:24.797Z,19.30
2017-07-27T19:16:52.764Z,19.30
2017-07-27T19:19:20.742Z,19.20
2017-07-27T19:21:48.720Z,19.20
2017-07-27T19:24:16.674Z,19.20
2017-07-27T19:26:44.514Z,19.10
2017-07-27T19:29:12.635Z,19.10
2017-07-27T19:31:40.526Z,19.10
2017-07-27T19:34:08.453Z,19.10
2017-07-27T19:36:36.675Z,19.00
2017-07-27T19:39:04.585Z,19.00
2017-07-27T19:41:32.456Z,19.00
2017-07-27T19:44:00.478Z,19.00
2017-07-27T19:46:28.392Z,19.00
2017-07-27T19:48:56.341Z,19.00
2017-07-27T19:51:25.792Z,19.00
2017-07-27T19:53:53.710Z,19.00
2017-07-27T19:56:21.703Z,19.00
2017-07-27T19:58:50.467Z,19.10
2017-07-27T20:01:18.372Z,19.00
2017-07-27T20:03:46.263Z,19.10
2017-07-27T20:06:14.218Z,19.10
2017-07-27T20:08:42.156Z,19.10
2017-07-27T20:11:09.975Z,19.10
2017-07-27T20:13:37.998Z,19.10
2017-07-27T20:16:06.048Z,19.10
2017-07-27T20:18:33.872Z,19.10
2017-07-27T20:21:02.863Z,19.10
2017-07-27T20:23:30.847Z,19.10
2017-07-27T20:25:58.711Z,19.10
2017-07-27T20:28:26.696Z,19.10
2017-07-27T20:30:54.668Z,19.10
2017-07-27T20:33:23.384Z,19.10
2017-07-27T20:35:51.337Z,19.00
2017-07-27T20:38:19.342Z,19.10
2017-07-27T20:40:47.218Z,19.10
2017-07-27T20:43:15.345Z,19.10
2017-07-27T20:45:44.047Z,19.10
2017-07-27T20:48:11.970Z,19.10
2017-07-27T20:50:39.854Z,19.10
2017-07-27T20:53:07.778Z,19.10
2017-07-27T20:55:35.604Z,19.10
2017-07-27T20:58:03.628Z,19.10
2017-07-27T21:00:31.440Z,19.10
2017-07-27T21:02:59.361Z,19.10
2017-07-27T21:05:27.237Z,19.00
2017-07-27T21:07:55.032Z,19.10
2017-07-27T21:10:23.996Z,19.10
2017-07-27T21:12:51.786Z,19.10
2017-07-27T21:15:20.097Z,19.00
2017-07-27T21:17:47.831Z,19.00
2017-07-27T21:20:15.441Z,19.00
2017-07-27T21:22:43.463Z,18.90
2017-07-27T21:25:10.299Z,18.90
2017-07-27T21:27:36.936Z,18.90
2017-07-27T21:30:03.439Z,18.80
2017-07-27T21:32:30.734Z,18.80
2017-07-27T21:34:57.267Z,18.80
2017-07-27T21:37:23.656Z,18.80
2017-07-27T21:39:50.056Z,18.80
2017-07-27T21:42:16.499Z,18.80
2017-07-27T21:44:42.872Z,18.80
2017-07-27T21:47:11.080Z,18.70
2017-07-27T21:49:37.486Z,18.60
2017-07-27T21:52:03.939Z,18.70
2017-07-27T21:54:30.334Z,18.70
2017-07-27T21:56:56.739Z,18.70
2017-07-27T21:59:23.164Z,18.70
2017-07-27T22:01:49.563Z,18.60
2017-07-27T22:04:15.998Z,18.60
2017-07-27T22:06:42.482Z,18.60
2017-07-27T22:09:08.844Z,18.60
2017-07-27T22:11:35.243Z,18.50
2017-07-27T22:14:01.648Z,18.50
2017-07-27T22:16:28.011Z,18.50
2017-07-27T22:18:54.499Z,18.50
2017-07-27T22:21:20.912Z,18.50
2017-07-27T22:23:48.176Z,18.50
2017-07-27T22:26:15.291Z,18.40
2017-07-27T22:28:41.687Z,18.40
2017-07-27T22:31:08.059Z,18.40
2017-07-27T22:33:34.519Z,18.40
2017-07-27T22:36:00.856Z,18.30
2017-07-27T22:38:27.256Z,18.30
2017-07-27T22:40:53.650Z,18.30
2017-07-27T22:43:21.030Z,18.20
2017-07-27T22:45:47.383Z,18.20
2017-07-27T22:48:13.764Z,18.20
2017-07-27T22:50:40.179Z,18.20
2017-07-27T22:53:06.579Z,18.20
2017-07-27T22:55:32.976Z,18.20
2017-07-27T22:57:59.362Z,18.20
2017-07-27T23:00:25.743Z,18.20
2017-07-27T23:02:52.147Z,18.10
2017-07-27T23:05:20.048Z,18.10
2017-07-27T23:07:46.595Z,18.10
2017-07-27T23:10:13.318Z,18.00
2017-07-27T23:12:39.689Z,18.00
2017-07-27T23:15:06.071Z,17.90
2017-07-27T23:17:32.480Z,17.90
2017-07-27T23:19:58.832Z,17.90
2017-07-27T23:22:25.258Z,17.90
2017-07-27T23:24:52.355Z,17.90
2017-07-27T23:27:18.747Z,17.80
2017-07-27T23:29:45.103Z,17.80
2017-07-27T23:32:11.607Z,17.80
2017-07-27T23:34:37.994Z,17.80
2017-07-27T23:37:04.391Z,17.80
2017-07-27T23:39:30.798Z,17.70
2017-07-27T23:41:57.179Z,17.70
2017-07-27T23:44:23.539Z,17.70
2017-07-27T23:46:49.979Z,17.70
2017-07-27T23:49:16.417Z,17.60
2017-07-27T23:51:42.796Z,17.60
2017-07-27T23:54:09.212Z,17.50
2017-07-27T23:56:35.661Z,17.50
2017-07-27T23:59:02.138Z,17.50
